Time;durP1;ratioP1;P1;durP2;ratioP2;P2;SDS_P1;SDS_P2;PMS_P1;PMS_P2;Temp;Humidity;BMP_temperature;BMP_pressure;BME280_temperature;BME280_humidity;BME280_pressure;Samples;Min_cycle;Max_cycle;Signal;HPM_P1;HPM_P2
2020/12/15 00:01:21;;;;;;;8.68;5.10;;;;;;;7.15;100.00;100026.28;10175538;29;20044;-70
2020/12/15 00:06:23;;;;;;;6.22;4.53;;;;;;;6.94;100.00;100034.97;10174263;29;20055;-70
2020/12/15 00:11:24;;;;;;;8.15;5.15;;;;;;;6.84;100.00;100044.09;10172046;29;20044;-70
2020/12/15 00:16:25;;;;;;;8.77;5.22;;;;;;;6.69;100.00;100045.53;10149791;29;20044;-70
2020/12/15 00:21:28;;;;;;;7.10;5.03;;;;;;;6.42;100.00;100028.22;10174829;29;20095;-71
2020/12/15 00:26:29;;;;;;;7.85;5.30;;;;;;;6.33;100.00;100037.25;10170999;29;20052;-71
2020/12/15 00:31:35;;;;;;;6.50;4.95;;;;;;;6.43;100.00;100058.72;10174609;29;20055;-71
2020/12/15 00:36:36;;;;;;;7.32;5.22;;;;;;;6.41;100.00;100056.16;10175008;29;20056;-71
2020/12/15 00:41:39;;;;;;;7.82;5.25;;;;;;;6.46;100.00;100059.44;10172393;29;20048;-71
2020/12/15 00:46:41;;;;;;;7.38;5.00;;;;;;;6.43;100.00;100077.03;10172996;29;20892;-71
2020/12/15 00:51:45;;;;;;;8.40;4.85;;;;;;;6.38;100.00;100081.53;10174353;29;20082;-71
2020/12/15 00:56:46;;;;;;;8.20;6.05;;;;;;;6.36;100.00;100075.53;10173546;29;20052;-71
2020/12/15 01:01:50;;;;;;;6.65;4.80;;;;;;;6.45;100.00;100098.72;10172157;29;20056;-71
2020/12/15 01:06:54;;;;;;;7.57;4.38;;;;;;;6.37;100.00;100096.38;10173680;29;20040;-71
2020/12/15 01:11:58;;;;;;;7.97;4.45;;;;;;;6.29;100.00;100108.03;10172467;29;20091;-72
2020/12/15 01:17:00;;;;;;;7.93;5.55;;;;;;;6.31;100.00;100125.38;10172827;29;20108;-71
2020/12/15 01:22:02;;;;;;;10.13;5.40;;;;;;;6.22;100.00;100130.06;10173704;29;20488;-71
2020/12/15 01:27:04;;;;;;;7.80;6.15;;;;;;;6.30;100.00;100152.44;10170729;29;20472;-71
2020/12/15 01:32:16;;;;;;;6.85;5.07;;;;;;;6.30;100.00;100167.28;10172376;29;20055;-72
2020/12/15 01:37:18;;;;;;;7.68;6.32;;;;;;;6.27;100.00;100176.13;10178091;29;20412;-72
2020/12/15 01:42:20;;;;;;;8.93;5.47;;;;;;;6.33;100.00;100190.75;10179064;29;20051;-72
2020/12/15 01:47:29;;;;;;;7.20;5.70;;;;;;;6.31;100.00;100192.53;10177949;29;20399;-71
2020/12/15 01:52:31;;;;;;;8.40;5.57;;;;;;;6.32;100.00;100192.50;10175319;29;20055;-71
2020/12/15 01:57:33;;;;;;;7.78;4.72;;;;;;;6.31;100.00;100188.16;10168936;29;20131;-71
2020/12/15 02:02:41;;;;;;;8.10;6.20;;;;;;;6.26;100.00;100189.25;10176307;29;20053;-71
2020/12/15 02:07:47;;;;;;;7.68;5.65;;;;;;;6.20;100.00;100199.88;10175904;29;20049;-71
2020/12/15 02:12:50;;;;;;;9.10;6.05;;;;;;;6.18;100.00;100197.34;10177154;29;20050;-71
2020/12/15 02:17:54;;;;;;;9.82;7.38;;;;;;;6.16;100.00;100214.84;10178635;29;20111;-71
2020/12/15 02:23:11;;;;;;;8.32;6.57;;;;;;;6.18;100.00;100226.13;10177568;29;20055;-71
2020/12/15 02:28:20;;;;;;;13.82;8.25;;;;;;;6.17;100.00;100227.00;10174773;29;20140;-71
2020/12/15 02:33:23;;;;;;;9.98;7.85;;;;;;;6.14;100.00;100240.19;10176744;29;20493;-71
2020/12/15 02:38:25;;;;;;;7.57;5.22;;;;;;;6.17;100.00;100261.03;10177157;29;20148;-71
2020/12/15 02:43:26;;;;;;;11.10;7.82;;;;;;;6.15;100.00;100248.88;10177179;29;20056;-71
2020/12/15 02:48:32;;;;;;;9.93;7.55;;;;;;;6.19;100.00;100259.22;10175847;29;20794;-71
2020/12/15 02:53:33;;;;;;;9.18;7.53;;;;;;;6.19;100.00;100266.22;10175947;29;20060;-71
2020/12/15 02:58:37;;;;;;;10.02;7.13;;;;;;;6.19;100.00;100259.22;10176227;29;20059;-71
2020/12/15 03:03:41;;;;;;;9.48;8.10;;;;;;;6.18;100.00;100259.25;10176336;29;20103;-71
2020/12/15 03:08:59;;;;;;;11.07;7.57;;;;;;;6.04;100.00;100239.59;10175276;29;20147;-71
2020/12/15 03:14:02;;;;;;;10.98;7.93;;;;;;;6.15;100.00;100262.81;10175743;29;20051;-71
2020/12/15 03:19:04;;;;;;;9.95;7.55;;;;;;;6.13;100.00;100263.75;10175981;29;20564;-71
2020/12/15 03:24:05;;;;;;;10.10;7.47;;;;;;;6.15;100.00;100268.06;10176125;29;20048;-71
2020/12/15 03:29:09;;;;;;;10.43;7.40;;;;;;;6.15;100.00;100254.97;10174009;29;20080;-71
2020/12/15 03:34:11;;;;;;;10.10;7.93;;;;;;;6.20;100.00;100255.66;10165091;29;20052;-71
2020/12/15 03:39:14;;;;;;;9.20;7.85;;;;;;;6.24;100.00;100253.81;10148649;29;20519;-71
2020/12/15 03:44:18;;;;;;;11.77;7.63;;;;;;;6.30;100.00;100248.38;10174443;29;20050;-72
2020/12/15 03:49:42;;;;;;;11.65;7.80;;;;;;;6.31;100.00;100243.09;10138149;29;20056;-72
2020/12/15 03:54:44;;;;;;;13.23;8.60;;;;;;;6.36;100.00;100243.81;10160980;29;20052;-72
2020/12/15 04:00:07;;;;;;;11.77;9.05;;;;;;;6.35;100.00;100252.59;10174356;29;20048;-72
2020/12/15 04:05:22;;;;;;;11.88;8.43;;;;;;;6.28;100.00;100250.19;10173608;29;20155;-72
2020/12/15 04:10:24;;;;;;;10.80;7.10;;;;;;;6.32;100.00;100247.44;10173829;29;20040;-72
2020/12/15 04:15:30;;;;;;;11.80;7.97;;;;;;;6.35;100.00;100255.19;10174076;29;20063;-71
2020/12/15 04:20:35;;;;;;;13.73;9.77;;;;;;;6.33;100.00;100256.16;10173448;29;20147;-72
2020/12/15 04:25:51;;;;;;;10.38;7.80;;;;;;;6.26;100.00;100260.72;10172076;29;20138;-72
2020/12/15 04:30:53;;;;;;;10.40;8.77;;;;;;;6.28;100.00;100263.25;10134258;29;20076;-71
2020/12/15 04:35:55;;;;;;;9.82;8.32;;;;;;;6.33;100.00;100259.63;10163800;29;20040;-71
2020/12/15 04:40:58;;;;;;;10.45;7.70;;;;;;;6.28;100.00;100260.66;10172906;29;20524;-71
2020/12/15 04:46:10;;;;;;;10.57;8.15;;;;;;;6.19;100.00;100268.81;10172786;29;20048;-71
2020/12/15 04:51:16;;;;;;;11.18;8.98;;;;;;;6.13;100.00;100269.00;10173493;29;20149;-71
2020/12/15 04:56:31;;;;;;;9.98;8.88;;;;;;;6.22;100.00;100280.03;10172229;29;20056;-71
2020/12/15 05:01:53;;;;;;;13.38;8.90;;;;;;;6.17;100.00;100274.09;10172549;29;20056;-71
2020/12/15 05:07:03;;;;;;;11.07;8.57;;;;;;;6.20;100.00;100280.97;10171104;29;20048;-71
2020/12/15 05:12:23;;;;;;;12.63;9.48;;;;;;;6.23;100.00;100284.34;10176762;29;20048;-71
2020/12/15 05:17:32;;;;;;;12.32;8.68;;;;;;;6.25;100.00;100292.16;10178590;29;20469;-71
2020/12/15 05:22:49;;;;;;;10.82;9.00;;;;;;;6.28;100.00;100294.66;10179083;29;20054;-71
2020/12/15 05:28:10;;;;;;;12.35;10.13;;;;;;;6.29;100.00;100294.63;10175551;29;20056;-71
2020/12/15 05:33:17;;;;;;;13.68;9.82;;;;;;;6.32;100.00;100297.16;10179072;29;20535;-71
2020/12/15 05:39:06;;;;;;;10.57;9.00;;;;;;;6.35;100.00;100294.44;10161588;29;20064;-71
2020/12/15 05:44:25;;;;;;;10.55;9.43;;;;;;;6.40;100.00;100291.66;10178684;29;20048;-74
2020/12/15 05:49:29;;;;;;;13.70;10.25;;;;;;;6.42;100.00;100295.09;10156778;29;20048;-70
2020/12/15 05:54:30;;;;;;;14.13;11.38;;;;;;;6.48;100.00;100307.97;10148604;29;20104;-70
2020/12/15 05:59:32;;;;;;;15.85;11.43;;;;;;;6.47;100.00;100301.88;10144898;29;20044;-70
2020/12/15 06:04:35;;;;;;;12.45;8.98;;;;;;;6.50;100.00;100305.31;10158983;29;20048;-70
2020/12/15 06:09:37;;;;;;;16.75;11.88;;;;;;;6.54;100.00;100310.38;10179385;29;20092;-70
2020/12/15 06:14:40;;;;;;;13.20;8.90;;;;;;;6.56;100.00;100310.34;10179194;29;20056;-70
2020/12/15 06:19:41;;;;;;;13.77;9.65;;;;;;;6.55;100.00;100312.09;10177321;29;20055;-71
2020/12/15 06:24:54;;;;;;;14.40;10.45;;;;;;;6.61;100.00;100311.88;10172981;29;20059;-70
2020/12/15 06:29:55;;;;;;;17.25;11.95;;;;;;;6.64;100.00;100318.78;10176639;29;20048;-70
2020/12/15 06:34:56;;;;;;;15.95;11.82;;;;;;;6.61;100.00;100305.81;10177380;29;20040;-70
2020/12/15 06:40:04;;;;;;;13.88;11.45;;;;;;;6.64;100.00;100309.19;10178525;29;20056;-70
2020/12/15 06:45:08;;;;;;;15.70;11.80;;;;;;;6.67;100.00;100311.72;10176637;29;20040;-69
2020/12/15 06:50:17;;;;;;;16.50;11.07;;;;;;;6.71;100.00;100313.31;10178515;29;20392;-69
2020/12/15 06:55:31;;;;;;;18.23;12.52;;;;;;;6.73;100.00;100314.13;10177156;29;20096;-69
2020/12/15 07:00:40;;;;;;;15.57;11.55;;;;;;;6.79;100.00;100321.75;10177434;29;20151;-69
2020/12/15 07:05:41;;;;;;;14.93;11.98;;;;;;;6.93;100.00;100326.56;10174818;29;20036;-69
2020/12/15 07:10:43;;;;;;;17.98;12.95;;;;;;;6.95;100.00;100337.81;10176935;29;20381;-69
2020/12/15 07:15:44;;;;;;;16.80;12.60;;;;;;;6.93;100.00;100338.78;10176069;29;20040;-69
2020/12/15 07:20:45;;;;;;;16.33;11.20;;;;;;;6.92;100.00;100337.06;10176518;29;20054;-69
2020/12/15 07:25:46;;;;;;;17.02;11.65;;;;;;;6.94;100.00;100343.97;10174240;29;20047;-70
2020/12/15 07:30:48;;;;;;;14.40;10.82;;;;;;;6.95;100.00;100343.03;10175170;29;20047;-70
2020/12/15 07:35:49;;;;;;;17.00;12.38;;;;;;;6.95;100.00;100342.19;10175225;29;20048;-70
2020/12/15 07:40:50;;;;;;;18.95;12.80;;;;;;;6.98;100.00;100334.25;10174259;29;20052;-70
2020/12/15 07:45:52;;;;;;;14.07;11.63;;;;;;;6.99;100.00;100338.56;10172431;29;20047;-70
2020/12/15 07:51:03;;;;;;;13.95;11.60;;;;;;;7.01;100.00;100339.38;10172741;29;20060;-70
2020/12/15 07:56:06;;;;;;;16.90;12.23;;;;;;;6.96;100.00;100341.28;10166028;29;20051;-70
2020/12/15 08:01:08;;;;;;;16.10;11.57;;;;;;;6.97;100.00;100354.34;10173111;29;20396;-70
2020/12/15 08:06:10;;;;;;;19.83;14.40;;;;;;;7.04;100.00;100354.97;10172028;29;20048;-70
2020/12/15 08:11:20;;;;;;;19.02;13.93;;;;;;;7.02;100.00;100344.56;10172708;29;20071;-70
2020/12/15 08:16:25;;;;;;;19.50;14.38;;;;;;;7.09;100.00;100347.84;10172682;29;20552;-70
2020/12/15 08:21:49;;;;;;;18.83;14.17;;;;;;;7.12;100.00;100356.44;10171723;29;20424;-69
2020/12/15 08:26:50;;;;;;;19.77;14.90;;;;;;;7.13;100.00;100360.75;10157731;29;20052;-71
2020/12/15 08:31:51;;;;;;;22.63;16.02;;;;;;;7.20;100.00;100362.25;10172150;29;20048;-70
2020/12/15 08:36:54;;;;;;;33.33;21.83;;;;;;;7.25;100.00;100356.88;10165006;29;20062;-69
2020/12/15 08:41:57;;;;;;;20.13;15.82;;;;;;;7.28;100.00;100371.66;10171518;29;20404;-71
2020/12/15 08:46:58;;;;;;;18.90;15.32;;;;;;;7.26;100.00;100368.22;10181358;29;20055;-71
2020/12/15 08:52:00;;;;;;;22.17;17.13;;;;;;;7.29;100.00;100370.72;10182440;29;20056;-70
2020/12/15 08:57:11;;;;;;;23.40;18.23;;;;;;;7.35;100.00;100370.53;10182382;29;20051;-71
2020/12/15 09:02:19;;;;;;;18.92;15.00;;;;;;;7.36;100.00;100378.34;10181259;29;20052;-70
2020/12/15 09:07:24;;;;;;;23.15;18.98;;;;;;;7.42;100.00;100388.59;10181183;29;20048;-69
2020/12/15 09:12:25;;;;;;;23.55;18.23;;;;;;;7.49;100.00;100384.84;10181400;29;20036;-70
2020/12/15 09:17:26;;;;;;;18.05;14.20;;;;;;;7.53;100.00;100394.28;10179895;29;20365;-70
2020/12/15 09:22:28;;;;;;;21.50;17.17;;;;;;;7.56;100.00;100399.44;10171504;29;20064;-68
2020/12/15 09:27:31;;;;;;;24.58;18.20;;;;;;;7.60;100.00;100389.72;10141667;29;20064;-71
2020/12/15 09:32:33;;;;;;;26.30;18.83;;;;;;;7.62;100.00;100400.97;10164947;29;20076;-71
2020/12/15 09:37:36;;;;;;;28.17;19.65;;;;;;;7.66;100.00;100399.13;10180151;29;20392;-71
2020/12/15 09:42:42;;;;;;;26.90;20.77;;;;;;;7.68;100.00;100406.03;10180848;29;20047;-70
2020/12/15 09:47:43;;;;;;;25.98;20.67;;;;;;;7.71;100.00;100402.41;10155503;29;20045;-70
2020/12/15 09:52:44;;;;;;;26.55;20.92;;;;;;;7.73;100.00;100411.09;10140744;29;20513;-70
2020/12/15 09:57:47;;;;;;;28.33;21.42;;;;;;;7.72;100.00;100410.25;10162181;29;20036;-70
2020/12/15 10:02:49;;;;;;;26.65;21.98;;;;;;;7.73;100.00;100413.72;10179789;29;20048;-70
2020/12/15 10:07:50;;;;;;;30.08;22.58;;;;;;;7.72;100.00;100417.25;10179232;29;20048;-70
2020/12/15 10:12:51;;;;;;;28.45;21.52;;;;;;;7.78;100.00;100423.16;10178838;29;20048;-70
2020/12/15 10:17:53;;;;;;;29.67;22.60;;;;;;;7.73;100.00;100398.84;10179147;29;20048;-70
2020/12/15 10:22:54;;;;;;;30.05;21.52;;;;;;;7.78;100.00;100409.19;10178315;29;20469;-70
2020/12/15 10:27:55;;;;;;;28.60;22.17;;;;;;;7.81;100.00;100396.81;10177714;29;20060;-70
2020/12/15 10:32:56;;;;;;;25.15;19.27;;;;;;;7.80;100.00;100400.34;10178922;29;20043;-70
2020/12/15 10:37:57;;;;;;;22.42;18.83;;;;;;;7.89;100.00;100401.75;10178028;29;20044;-70
2020/12/15 10:42:59;;;;;;;27.23;20.05;;;;;;;7.89;100.00;100394.75;10177761;29;20055;-70
2020/12/15 10:48:01;;;;;;;29.15;20.30;;;;;;;7.96;100.00;100405.88;10178359;29;20051;-70
2020/12/15 10:53:08;;;;;;;27.05;20.48;;;;;;;7.96;100.00;100411.13;10176868;29;20045;-70
2020/12/15 10:58:09;;;;;;;25.88;19.33;;;;;;;7.98;100.00;100412.78;10178026;29;20040;-70
2020/12/15 11:03:11;;;;;;;32.80;23.10;;;;;;;8.03;100.00;100415.25;10176244;29;20048;-70
2020/12/15 11:08:12;;;;;;;27.25;20.42;;;;;;;7.94;100.00;100400.72;10176240;29;20560;-70
2020/12/15 11:13:13;;;;;;;27.30;20.50;;;;;;;7.99;100.00;100403.16;10176377;29;20048;-70
2020/12/15 11:18:14;;;;;;;30.20;22.60;;;;;;;8.02;100.00;100417.94;10176419;29;20048;-71
2020/12/15 11:23:15;;;;;;;28.40;22.58;;;;;;;8.01;100.00;100411.81;10161803;29;20044;-70
2020/12/15 11:28:17;;;;;;;30.95;23.70;;;;;;;8.00;100.00;100413.59;10164686;29;20052;-70
2020/12/15 11:33:18;;;;;;;32.78;25.88;;;;;;;8.02;100.00;100412.69;10176477;29;20059;-70
2020/12/15 11:38:20;;;;;;;32.35;25.13;;;;;;;8.02;100.00;100418.78;10175930;29;20052;-70
2020/12/15 11:43:21;;;;;;;33.03;25.27;;;;;;;8.04;100.00;100429.19;10174033;29;20046;-71
2020/12/15 11:48:23;;;;;;;36.30;24.00;;;;;;;8.03;100.00;100438.00;10173185;29;20040;-71
2020/12/15 11:53:24;;;;;;;29.75;21.88;;;;;;;8.06;100.00;100443.13;10172886;29;20048;-71
2020/12/15 11:58:25;;;;;;;32.40;23.73;;;;;;;8.05;100.00;100441.41;10170893;29;20063;-71
2020/12/15 12:03:27;;;;;;;26.52;21.25;;;;;;;8.09;100.00;100454.38;10170608;29;20052;-71
2020/12/15 12:08:29;;;;;;;26.60;19.10;;;;;;;8.11;100.00;100449.94;10173512;29;20051;-71
2020/12/15 12:13:31;;;;;;;29.88;21.83;;;;;;;8.16;100.00;100460.25;10174115;29;20080;-70
2020/12/15 12:18:32;;;;;;;26.98;21.13;;;;;;;8.12;100.00;100464.72;10174675;29;20051;-70
2020/12/15 12:23:33;;;;;;;26.42;18.55;;;;;;;8.06;100.00;100445.75;10173147;29;20069;-70
2020/12/15 12:28:35;;;;;;;24.33;17.23;;;;;;;8.11;100.00;100449.06;10174350;29;20542;-71
2020/12/15 12:33:36;;;;;;;21.00;16.98;;;;;;;8.10;100.00;100445.59;10174843;29;20044;-71
2020/12/15 12:38:37;;;;;;;25.75;18.33;;;;;;;8.11;100.00;100444.69;10173907;29;20044;-71
2020/12/15 12:43:38;;;;;;;26.35;19.75;;;;;;;8.16;100.00;100455.84;10173178;29;20048;-70
2020/12/15 12:48:39;;;;;;;25.40;18.08;;;;;;;8.12;100.00;100450.78;10172961;29;20055;-70
2020/12/15 12:53:42;;;;;;;24.25;18.85;;;;;;;8.15;100.00;100455.91;10173168;29;20535;-71
2020/12/15 12:58:43;;;;;;;25.60;19.25;;;;;;;8.15;100.00;100453.28;10173332;29;20051;-70
2020/12/15 13:03:44;;;;;;;17.25;14.00;;;;;;;8.20;100.00;100464.47;10173493;29;20072;-71
2020/12/15 13:08:45;;;;;;;23.42;16.35;;;;;;;8.30;100.00;100463.22;10173268;29;20496;-70
2020/12/15 13:13:56;;;;;;;23.58;18.02;;;;;;;8.30;100.00;100455.34;10173949;29;20421;-71
2020/12/15 13:18:57;;;;;;;21.48;15.05;;;;;;;8.35;100.00;100477.06;10171871;29;20055;-71
2020/12/15 13:23:58;;;;;;;13.05;11.63;;;;;;;8.42;100.00;100481.16;10161414;29;20072;-71
2020/12/15 13:29:03;;;;;;;13.77;8.77;;;;;;;8.51;100.00;100490.47;10171427;29;20080;-71
2020/12/15 13:34:05;;;;;;;12.45;8.27;;;;;;;8.54;100.00;100499.06;10177286;29;20051;-70
2020/12/15 13:39:06;;;;;;;11.48;7.80;;;;;;;8.60;100.00;100504.13;10155918;29;20040;-70
2020/12/15 13:44:08;;;;;;;10.13;8.05;;;;;;;8.67;100.00;100513.47;10179901;29;20047;-70
2020/12/15 13:49:09;;;;;;;7.45;6.05;;;;;;;8.75;100.00;100521.91;10179598;29;20513;-70
2020/12/15 13:54:10;;;;;;;8.43;6.75;;;;;;;8.73;100.00;100525.50;10180149;29;20515;-70
2020/12/15 13:59:11;;;;;;;6.80;5.78;;;;;;;8.84;100.00;100527.72;10178674;29;20040;-70
2020/12/15 14:04:12;;;;;;;10.80;8.02;;;;;;;8.93;100.00;100532.63;10179446;29;20047;-70
2020/12/15 14:09:13;;;;;;;37.00;33.10;;;;;;;8.96;100.00;100540.38;10150132;29;20040;-70
2020/12/15 14:14:14;;;;;;;14.60;13.10;;;;;;;8.99;100.00;100540.28;10177681;29;20485;-70
2020/12/15 14:19:16;;;;;;;9.40;7.70;;;;;;;8.99;100.00;100543.75;10178297;29;20100;-70
2020/12/15 14:24:19;;;;;;;10.80;9.35;;;;;;;8.94;100.00;100544.84;10177508;29;20040;-70
2020/12/15 14:29:21;;;;;;;9.23;7.70;;;;;;;8.99;100.00;100556.03;10177113;29;20060;-71
2020/12/15 14:34:22;;;;;;;10.30;7.85;;;;;;;8.98;100.00;100549.91;10178172;29;20040;-71
2020/12/15 14:39:39;;;;;;;8.52;7.60;;;;;;;9.13;100.00;100569.50;10177688;29;20054;-71
2020/12/15 14:44:42;;;;;;;8.13;7.35;;;;;;;9.16;100.00;100564.13;10175010;29;20051;-71
2020/12/15 14:49:47;;;;;;;17.77;15.90;;;;;;;9.18;100.00;100571.94;10176703;29;20048;-71
2020/12/15 14:54:48;;;;;;;11.25;10.05;;;;;;;9.12;100.00;100581.78;10176978;29;20055;-71
2020/12/15 14:59:50;;;;;;;11.13;7.22;;;;;;;9.06;100.00;100583.78;10176136;29;20036;-71
2020/12/15 15:04:51;;;;;;;11.68;8.70;;;;;;;9.07;100.00;100577.63;10176877;29;20044;-70
2020/12/15 15:09:53;;;;;;;6.13;5.40;;;;;;;9.05;100.00;100593.44;10176523;29;20484;-70
2020/12/15 15:14:54;;;;;;;9.88;6.72;;;;;;;9.05;100.00;100597.84;10176512;29;20067;-70
2020/12/15 15:19:55;;;;;;;7.30;6.10;;;;;;;9.04;100.00;100609.25;10175612;29;20052;-71
2020/12/15 15:24:56;;;;;;;8.35;7.53;;;;;;;9.03;100.00;100618.09;10176685;29;20481;-71
2020/12/15 15:29:58;;;;;;;7.03;5.60;;;;;;;9.00;100.00;100613.78;10175315;29;20056;-71
2020/12/15 15:34:59;;;;;;;5.05;4.50;;;;;;;8.99;100.00;100613.84;10175044;29;20055;-71
2020/12/15 15:40:00;;;;;;;8.43;7.10;;;;;;;8.98;100.00;100627.88;10175878;29;20048;-71
2020/12/15 15:45:01;;;;;;;7.95;5.95;;;;;;;8.97;100.00;100623.53;10172572;29;20060;-71
2020/12/15 15:50:05;;;;;;;10.45;7.82;;;;;;;8.93;100.00;100629.84;10174625;29;20543;-71
2020/12/15 15:55:06;;;;;;;6.07;5.32;;;;;;;8.93;100.00;100630.69;10173768;29;20052;-71
2020/12/15 16:00:07;;;;;;;16.52;12.82;;;;;;;8.83;100.00;100621.44;10173576;29;20044;-71
2020/12/15 16:05:09;;;;;;;27.63;24.73;;;;;;;8.83;100.00;100645.09;10172255;29;20062;-71
2020/12/15 16:10:10;;;;;;;41.75;36.40;;;;;;;8.79;100.00;100643.47;10173493;29;20040;-71
2020/12/15 16:15:11;;;;;;;12.38;10.93;;;;;;;8.75;100.00;100652.38;10173767;29;20040;-71
2020/12/15 16:20:17;;;;;;;12.30;11.10;;;;;;;8.72;100.00;100653.34;10172779;29;20048;-71
2020/12/15 16:25:18;;;;;;;11.82;10.27;;;;;;;8.65;100.00;100666.75;10171371;29;20040;-70
2020/12/15 16:30:19;;;;;;;6.72;5.22;;;;;;;8.60;100.00;100673.94;10172982;29;20063;-70
2020/12/15 16:35:20;;;;;;;9.85;7.57;;;;;;;8.61;100.00;100680.91;10173797;29;20492;-70
2020/12/15 16:40:21;;;;;;;12.40;9.98;;;;;;;8.69;100.00;100692.00;10165483;29;20044;-70
2020/12/15 16:45:22;;;;;;;10.50;9.13;;;;;;;8.74;100.00;100704.06;10178470;29;20044;-70
2020/12/15 16:50:23;;;;;;;24.52;22.10;;;;;;;8.87;100.00;100707.09;10166527;29;20052;-70
2020/12/15 16:55:24;;;;;;;10.50;9.40;;;;;;;8.88;100.00;100721.09;10171487;29;20064;-70
2020/12/15 17:00:26;;;;;;;7.68;5.80;;;;;;;8.81;100.00;100716.97;10174043;29;20051;-71
2020/12/15 17:05:27;;;;;;;6.68;5.32;;;;;;;8.68;100.00;100725.28;10176144;29;20473;-71
2020/12/15 17:10:28;;;;;;;6.95;5.97;;;;;;;8.45;100.00;100719.97;10172997;29;20044;-71
2020/12/15 17:15:44;;;;;;;9.43;8.52;;;;;;;8.37;100.00;100741.19;10174790;29;20053;-72
2020/12/15 17:20:48;;;;;;;6.22;5.30;;;;;;;8.34;100.00;100738.69;10175837;29;20051;-71
2020/12/15 17:25:49;;;;;;;6.07;5.30;;;;;;;8.35;100.00;100748.28;10172728;29;20051;-71
2020/12/15 17:30:53;;;;;;;6.80;4.78;;;;;;;8.21;100.00;100736.47;10179562;29;20044;-71
2020/12/15 17:35:55;;;;;;;7.10;5.80;;;;;;;8.09;100.00;100744.75;10169467;29;20499;-71
2020/12/15 17:40:56;;;;;;;6.50;4.68;;;;;;;7.99;100.00;100738.94;10170621;29;20374;-72
2020/12/15 17:45:57;;;;;;;6.30;4.80;;;;;;;7.99;100.00;100757.31;10163096;29;20040;-71
2020/12/15 17:50:59;;;;;;;7.47;5.95;;;;;;;7.88;100.00;100749.75;10174750;29;20500;-70
2020/12/15 17:56:00;;;;;;;7.30;5.40;;;;;;;8.05;100.00;100769.34;10171904;29;20052;-70
2020/12/15 18:01:01;;;;;;;7.13;6.15;;;;;;;7.82;100.00;100764.81;10174884;29;20107;-70
2020/12/15 18:06:04;;;;;;;11.20;8.85;;;;;;;8.07;100.00;100772.78;10174590;29;20044;-70
2020/12/15 18:11:06;;;;;;;7.65;6.32;;;;;;;8.14;100.00;100777.81;10171314;29;20380;-71
2020/12/15 18:16:12;;;;;;;8.88;5.85;;;;;;;8.13;100.00;100783.09;10172944;29;20070;-71
2020/12/15 18:21:18;;;;;;;7.90;5.93;;;;;;;7.84;100.00;100787.50;10174354;29;20058;-71
2020/12/15 18:26:27;;;;;;;8.35;6.57;;;;;;;7.98;100.00;100803.66;10175734;29;20064;-71
2020/12/15 18:31:33;;;;;;;9.85;8.23;;;;;;;8.05;100.00;100808.72;10175525;29;20048;-70
2020/12/15 18:36:39;;;;;;;10.60;9.50;;;;;;;8.05;100.00;100801.69;10177105;29;20048;-70
2020/12/15 18:41:49;;;;;;;9.88;8.88;;;;;;;8.14;100.00;100817.16;10177801;29;20123;-70
2020/12/15 18:46:55;;;;;;;9.75;8.18;;;;;;;8.14;100.00;100821.56;10176243;29;20044;-71
2020/12/15 18:52:01;;;;;;;7.50;6.78;;;;;;;8.14;100.00;100829.44;10175843;29;20040;-70
2020/12/15 18:57:07;;;;;;;8.43;7.60;;;;;;;8.04;100.00;100841.09;10177369;29;20048;-71
2020/12/15 19:02:13;;;;;;;7.53;6.60;;;;;;;8.18;100.00;100838.94;10175839;29;20123;-71
2020/12/15 19:07:19;;;;;;;9.63;8.32;;;;;;;8.22;100.00;100840.53;10170785;29;20135;-71
2020/12/15 19:12:25;;;;;;;8.52;7.32;;;;;;;8.11;100.00;100845.28;10176736;29;20467;-70
2020/12/15 19:17:31;;;;;;;10.18;8.32;;;;;;;8.12;100.00;100833.88;10175930;29;20050;-70
2020/12/15 19:22:38;;;;;;;11.18;8.85;;;;;;;8.08;100.00;100838.34;10176644;29;20437;-70
2020/12/15 19:27:45;;;;;;;9.13;8.15;;;;;;;8.06;100.00;100836.66;10174147;29;20054;-70
2020/12/15 19:32:51;;;;;;;7.70;6.80;;;;;;;7.95;100.00;100831.78;10174508;29;20050;-71
2020/12/15 19:37:57;;;;;;;8.50;7.07;;;;;;;8.05;100.00;100827.94;10173067;29;20131;-70
2020/12/15 19:43:03;;;;;;;7.28;6.45;;;;;;;8.16;100.00;100820.59;10174063;29;20051;-71
2020/12/15 19:48:09;;;;;;;9.75;8.23;;;;;;;8.05;100.00;100820.06;10173519;29;20040;-70
2020/12/15 19:53:16;;;;;;;9.18;7.65;;;;;;;8.05;100.00;100827.94;10170192;29;20392;-70
2020/12/15 19:58:22;;;;;;;10.45;9.35;;;;;;;7.77;100.00;100817.44;10173234;29;20488;-70
2020/12/15 20:03:28;;;;;;;9.77;8.77;;;;;;;7.54;100.00;100819.84;10174569;29;20472;-71
2020/12/15 20:08:34;;;;;;;13.07;9.93;;;;;;;7.45;100.00;100820.94;10169963;29;20047;-71
2020/12/15 20:13:40;;;;;;;10.93;8.20;;;;;;;7.43;100.00;100833.25;10147585;29;20063;-70
2020/12/15 20:18:48;;;;;;;9.90;7.35;;;;;;;7.22;100.00;100833.84;10172435;29;20044;-71
2020/12/15 20:23:54;;;;;;;12.05;9.70;;;;;;;7.33;100.00;100838.78;10172239;29;20040;-70
2020/12/15 20:29:03;;;;;;;11.82;10.20;;;;;;;7.41;100.00;100848.16;10169580;29;20056;-71
2020/12/15 20:34:09;;;;;;;9.90;8.88;;;;;;;7.28;100.00;100854.63;10172579;29;20048;-70
2020/12/15 20:39:15;;;;;;;15.00;13.63;;;;;;;7.40;100.00;100858.69;10170334;29;20131;-71
2020/12/15 20:44:21;;;;;;;15.45;9.30;;;;;;;7.56;100.00;100873.09;10169283;29;20480;-70
2020/12/15 20:49:28;;;;;;;10.82;9.75;;;;;;;7.72;100.00;100876.13;10171046;29;20036;-71
2020/12/15 20:54:34;;;;;;;13.57;12.27;;;;;;;7.59;100.00;100878.25;10171755;29;20076;-70
2020/12/15 20:59:40;;;;;;;11.32;9.77;;;;;;;7.10;100.00;100869.09;10168409;29;20036;-71
2020/12/15 21:04:46;;;;;;;7.57;6.53;;;;;;;6.45;100.00;100855.84;10164989;29;20040;-71
2020/12/15 21:09:52;;;;;;;7.78;6.72;;;;;;;6.44;100.00;100864.56;10168404;29;20043;-71
2020/12/15 21:14:58;;;;;;;11.55;8.73;;;;;;;6.43;100.00;100870.75;10168927;29;20412;-71
2020/12/15 21:20:04;;;;;;;13.20;11.23;;;;;;;6.35;100.00;100869.19;10168657;29;20040;-71
2020/12/15 21:25:10;;;;;;;12.50;10.98;;;;;;;6.59;100.00;100886.06;10170249;29;20036;-71
2020/12/15 21:30:16;;;;;;;14.57;13.25;;;;;;;6.69;100.00;100898.06;10170451;29;20052;-71
2020/12/15 21:35:22;;;;;;;10.73;7.65;;;;;;;6.60;100.00;100908.75;10167730;29;20407;-71
2020/12/15 21:40:23;;;;;;;12.63;11.35;;;;;;;6.31;100.00;100917.22;10169804;29;20473;-71
2020/12/15 21:45:38;;;;;;;16.75;15.13;;;;;;;6.64;100.00;100937.41;10169906;29;20051;-71
2020/12/15 21:50:40;;;;;;;7.30;5.82;;;;;;;6.22;100.00;100933.13;10173538;29;20048;-70
2020/12/15 21:55:41;;;;;;;8.30;6.55;;;;;;;6.27;100.00;100945.25;10178733;29;20043;-70
2020/12/15 22:00:42;;;;;;;11.55;9.25;;;;;;;5.49;100.00;100926.72;10179445;29;20476;-71
2020/12/15 22:05:44;;;;;;;9.98;8.52;;;;;;;5.23;100.00;100924.56;10180005;29;20048;-70
2020/12/15 22:10:45;;;;;;;11.10;8.18;;;;;;;5.39;100.00;100938.22;10179697;29;20048;-70
2020/12/15 22:15:46;;;;;;;15.60;12.07;;;;;;;5.62;100.00;100952.56;10178431;29;20051;-70
2020/12/15 22:20:47;;;;;;;9.52;8.20;;;;;;;5.47;100.00;100955.47;10178298;29;20067;-70
2020/12/15 22:25:48;;;;;;;12.98;8.05;;;;;;;4.98;100.00;100958.06;10177288;29;20055;-70
2020/12/15 22:30:49;;;;;;;14.07;6.90;;;;;;;4.94;100.00;100970.28;10178234;29;20082;-70
2020/12/15 22:35:50;;;;;;;16.08;8.98;;;;;;;4.77;100.00;100964.44;10177315;29;20048;-70
2020/12/15 22:40:51;;;;;;;47.88;8.80;;;;;;;4.49;100.00;100978.78;10177270;29;20480;-70
2020/12/15 22:45:52;;;;;;;38.15;11.77;;;;;;;4.51;100.00;100982.25;10177217;29;20048;-70
2020/12/15 22:50:54;;;;;;;34.35;6.88;;;;;;;4.28;100.00;100979.91;10165642;29;20055;-70
2020/12/15 22:55:55;;;;;;;87.90;13.07;;;;;;;4.43;100.00;100992.78;10173249;29;20064;-70
2020/12/15 23:00:56;;;;;;;79.72;10.60;;;;;;;4.10;100.00;100995.81;10162597;29;20377;-70